sensor_id;sensor_type;location;lat;lon;timestamp;temperature;humidity
10300;DHT22;5195;48.562;9.192;2023-05-25T00:01:23;15.20;34.20
10300;DHT22;5195;48.562;9.192;2023-05-25T00:03:59;15.30;34.10
10300;DHT22;5195;48.562;9.192;2023-05-25T00:06:35;15.40;34.10
10300;DHT22;5195;48.562;9.192;2023-05-25T00:09:10;15.10;34.40
10300;DHT22;5195;48.562;9.192;2023-05-25T00:11:46;14.70;34.90
10300;DHT22;5195;48.562;9.192;2023-05-25T00:14:21;14.70;35.30
10300;DHT22;5195;48.562;9.192;2023-05-25T00:16:57;15.00;34.90
10300;DHT22;5195;48.562;9.192;2023-05-25T00:19:32;14.80;35.20
10300;DHT22;5195;48.562;9.192;2023-05-25T00:22:08;14.60;35.80
10300;DHT22;5195;48.562;9.192;2023-05-25T00:24:44;14.30;36.00
10300;DHT22;5195;48.562;9.192;2023-05-25T00:27:19;14.50;36.40
10300;DHT22;5195;48.562;9.192;2023-05-25T00:29:55;14.50;36.50
10300;DHT22;5195;48.562;9.192;2023-05-25T00:32:30;14.30;36.70
10300;DHT22;5195;48.562;9.192;2023-05-25T00:35:06;14.00;36.80
10300;DHT22;5195;48.562;9.192;2023-05-25T00:37:42;14.30;37.00
10300;DHT22;5195;48.562;9.192;2023-05-25T00:40:17;14.30;37.30
10300;DHT22;5195;48.562;9.192;2023-05-25T00:42:54;14.40;36.70
10300;DHT22;5195;48.562;9.192;2023-05-25T00:45:29;14.40;36.70
10300;DHT22;5195;48.562;9.192;2023-05-25T00:48:05;14.10;37.20
10300;DHT22;5195;48.562;9.192;2023-05-25T00:50:41;14.20;36.90
10300;DHT22;5195;48.562;9.192;2023-05-25T00:53:16;14.20;37.10
10300;DHT22;5195;48.562;9.192;2023-05-25T00:55:54;13.90;37.30
10300;DHT22;5195;48.562;9.192;2023-05-25T00:58:29;13.70;37.80
10300;DHT22;5195;48.562;9.192;2023-05-25T01:01:03;13.50;38.20
10300;DHT22;5195;48.562;9.192;2023-05-25T01:03:40;13.40;38.50
10300;DHT22;5195;48.562;9.192;2023-05-25T01:06:15;13.70;38.70
10300;DHT22;5195;48.562;9.192;2023-05-25T01:08:52;13.60;38.40
10300;DHT22;5195;48.562;9.192;2023-05-25T01:11:30;14.20;38.20
10300;DHT22;5195;48.562;9.192;2023-05-25T01:14:03;14.10;38.10
10300;DHT22;5195;48.562;9.192;2023-05-25T01:16:38;14.40;37.80
10300;DHT22;5195;48.562;9.192;2023-05-25T01:19:14;14.10;37.70
10300;DHT22;5195;48.562;9.192;2023-05-25T01:27:25;13.90;39.00
10300;DHT22;5195;48.562;9.192;2023-05-25T01:29:59;13.80;38.90
10300;DHT22;5195;48.562;9.192;2023-05-25T01:32:35;13.80;39.00
10300;DHT22;5195;48.562;9.192;2023-05-25T01:35:11;14.00;38.70
10300;DHT22;5195;48.562;9.192;2023-05-25T01:37:46;14.20;38.50
10300;DHT22;5195;48.562;9.192;2023-05-25T01:40:21;14.30;38.30
10300;DHT22;5195;48.562;9.192;2023-05-25T01:42:57;13.90;38.40
10300;DHT22;5195;48.562;9.192;2023-05-25T01:45:33;13.90;39.00
10300;DHT22;5195;48.562;9.192;2023-05-25T01:53:36;13.90;38.80
10300;DHT22;5195;48.562;9.192;2023-05-25T01:56:02;13.50;39.40
10300;DHT22;5195;48.562;9.192;2023-05-25T01:58:44;13.50;40.00
10300;DHT22;5195;48.562;9.192;2023-05-25T02:01:19;13.40;39.80
10300;DHT22;5195;48.562;9.192;2023-05-25T02:03:55;13.10;40.20
10300;DHT22;5195;48.562;9.192;2023-05-25T02:06:30;12.80;40.50
10300;DHT22;5195;48.562;9.192;2023-05-25T02:09:07;12.60;40.70
10300;DHT22;5195;48.562;9.192;2023-05-25T02:11:44;12.50;41.10
10300;DHT22;5195;48.562;9.192;2023-05-25T02:14:21;12.70;41.50
10300;DHT22;5195;48.562;9.192;2023-05-25T02:16:57;12.80;41.30
10300;DHT22;5195;48.562;9.192;2023-05-25T02:19:33;12.50;41.30
10300;DHT22;5195;48.562;9.192;2023-05-25T02:22:08;12.40;41.70
10300;DHT22;5195;48.562;9.192;2023-05-25T02:24:44;12.70;41.60
10300;DHT22;5195;48.562;9.192;2023-05-25T02:27:20;12.70;41.60
10300;DHT22;5195;48.562;9.192;2023-05-25T02:29:55;12.50;41.70
10300;DHT22;5195;48.562;9.192;2023-05-25T02:32:31;12.30;42.00
10300;DHT22;5195;48.562;9.192;2023-05-25T02:35:07;12.60;42.50
10300;DHT22;5195;48.562;9.192;2023-05-25T02:37:43;12.90;41.60
10300;DHT22;5195;48.562;9.192;2023-05-25T02:40:18;12.90;41.60
10300;DHT22;5195;48.562;9.192;2023-05-25T02:42:55;12.70;41.90
10300;DHT22;5195;48.562;9.192;2023-05-25T02:45:30;12.80;42.10
10300;DHT22;5195;48.562;9.192;2023-05-25T02:48:07;13.10;41.70
10300;DHT22;5195;48.562;9.192;2023-05-25T02:50:43;13.00;41.50
10300;DHT22;5195;48.562;9.192;2023-05-25T02:53:18;12.70;41.90
10300;DHT22;5195;48.562;9.192;2023-05-25T02:55:54;12.80;42.30
10300;DHT22;5195;48.562;9.192;2023-05-25T02:58:30;13.00;41.90
10300;DHT22;5195;48.562;9.192;2023-05-25T03:01:05;13.30;41.60
10300;DHT22;5195;48.562;9.192;2023-05-25T03:03:41;13.10;41.50
10300;DHT22;5195;48.562;9.192;2023-05-25T03:06:16;12.70;41.90
10300;DHT22;5195;48.562;9.192;2023-05-25T03:08:52;12.40;42.30
10300;DHT22;5195;48.562;9.192;2023-05-25T03:11:29;12.20;42.60
10300;DHT22;5195;48.562;9.192;2023-05-25T03:14:04;12.50;43.30
10300;DHT22;5195;48.562;9.192;2023-05-25T03:16:41;13.20;42.20
10300;DHT22;5195;48.562;9.192;2023-05-25T03:19:16;13.20;42.10
10300;DHT22;5195;48.562;9.192;2023-05-25T03:21:52;13.40;41.80
10300;DHT22;5195;48.562;9.192;2023-05-25T03:24:28;13.70;41.70
10300;DHT22;5195;48.562;9.192;2023-05-25T03:27:04;13.70;41.70
10300;DHT22;5195;48.562;9.192;2023-05-25T03:29:39;13.80;41.00
10300;DHT22;5195;48.562;9.192;2023-05-25T03:32:15;13.50;41.30
10300;DHT22;5195;48.562;9.192;2023-05-25T03:34:50;13.10;41.80
10300;DHT22;5195;48.562;9.192;2023-05-25T03:37:26;13.10;42.40
10300;DHT22;5195;48.562;9.192;2023-05-25T03:40:02;13.00;42.40
10300;DHT22;5195;48.562;9.192;2023-05-25T03:42:37;13.10;42.40
10300;DHT22;5195;48.562;9.192;2023-05-25T03:45:13;13.00;42.30
10300;DHT22;5195;48.562;9.192;2023-05-25T03:47:48;13.10;42.40
10300;DHT22;5195;48.562;9.192;2023-05-25T03:50:24;13.40;42.50
10300;DHT22;5195;48.562;9.192;2023-05-25T03:53:01;13.70;42.30
10300;DHT22;5195;48.562;9.192;2023-05-25T03:55:37;13.90;41.80
10300;DHT22;5195;48.562;9.192;2023-05-25T03:58:12;14.00;41.50
10300;DHT22;5195;48.562;9.192;2023-05-25T04:00:48;14.10;41.30
10300;DHT22;5195;48.562;9.192;2023-05-25T04:03:23;14.20;41.20
10300;DHT22;5195;48.562;9.192;2023-05-25T04:05:59;13.90;41.50
10300;DHT22;5195;48.562;9.192;2023-05-25T04:08:34;13.80;41.90
10300;DHT22;5195;48.562;9.192;2023-05-25T04:11:10;13.60;42.00
10300;DHT22;5195;48.562;9.192;2023-05-25T04:13:47;13.80;41.70
10300;DHT22;5195;48.562;9.192;2023-05-25T04:16:25;13.80;41.60
10300;DHT22;5195;48.562;9.192;2023-05-25T04:19:02;13.70;41.40
10300;DHT22;5195;48.562;9.192;2023-05-25T04:21:37;13.60;41.30
10300;DHT22;5195;48.562;9.192;2023-05-25T04:24:13;13.60;41.90
10300;DHT22;5195;48.562;9.192;2023-05-25T04:26:49;13.00;42.60
10300;DHT22;5195;48.562;9.192;2023-05-25T04:29:25;13.00;42.50
10300;DHT22;5195;48.562;9.192;2023-05-25T04:32:00;13.20;42.90
10300;DHT22;5195;48.562;9.192;2023-05-25T04:34:36;13.10;42.70
10300;DHT22;5195;48.562;9.192;2023-05-25T04:37:13;12.90;43.00
10300;DHT22;5195;48.562;9.192;2023-05-25T04:39:49;12.70;43.20
10300;DHT22;5195;48.562;9.192;2023-05-25T04:42:24;12.50;43.40
10300;DHT22;5195;48.562;9.192;2023-05-25T04:45:00;12.40;43.80
10300;DHT22;5195;48.562;9.192;2023-05-25T04:47:36;12.40;44.00
10300;DHT22;5195;48.562;9.192;2023-05-25T04:50:11;12.30;44.10
10300;DHT22;5195;48.562;9.192;2023-05-25T04:52:47;12.30;44.30
10300;DHT22;5195;48.562;9.192;2023-05-25T04:55:23;13.20;43.90
10300;DHT22;5195;48.562;9.192;2023-05-25T04:57:59;13.20;44.10
10300;DHT22;5195;48.562;9.192;2023-05-25T05:00:34;13.60;43.60
10300;DHT22;5195;48.562;9.192;2023-05-25T05:03:10;13.50;43.40
10300;DHT22;5195;48.562;9.192;2023-05-25T05:05:45;13.70;43.40
10300;DHT22;5195;48.562;9.192;2023-05-25T05:08:21;14.00;43.50
10300;DHT22;5195;48.562;9.192;2023-05-25T05:10:57;14.50;42.50
10300;DHT22;5195;48.562;9.192;2023-05-25T05:13:33;14.50;42.50
10300;DHT22;5195;48.562;9.192;2023-05-25T05:16:08;14.40;42.60
10300;DHT22;5195;48.562;9.192;2023-05-25T05:18:44;14.10;43.20
10300;DHT22;5195;48.562;9.192;2023-05-25T05:21:20;13.90;43.30
10300;DHT22;5195;48.562;9.192;2023-05-25T05:23:56;13.80;43.50
10300;DHT22;5195;48.562;9.192;2023-05-25T05:26:34;13.70;43.50
10300;DHT22;5195;48.562;9.192;2023-05-25T05:29:10;13.70;43.80
10300;DHT22;5195;48.562;9.192;2023-05-25T05:31:46;13.70;43.70
10300;DHT22;5195;48.562;9.192;2023-05-25T05:34:21;13.80;43.70
10300;DHT22;5195;48.562;9.192;2023-05-25T05:36:57;13.80;44.40
10300;DHT22;5195;48.562;9.192;2023-05-25T05:39:34;13.90;44.00
10300;DHT22;5195;48.562;9.192;2023-05-25T05:42:10;14.00;43.90
10300;DHT22;5195;48.562;9.192;2023-05-25T05:44:46;14.70;43.10
10300;DHT22;5195;48.562;9.192;2023-05-25T05:47:21;14.70;43.10
10300;DHT22;5195;48.562;9.192;2023-05-25T05:49:57;14.60;42.80
10300;DHT22;5195;48.562;9.192;2023-05-25T05:52:33;14.50;43.00
10300;DHT22;5195;48.562;9.192;2023-05-25T05:55:08;14.80;43.30
10300;DHT22;5195;48.562;9.192;2023-05-25T05:57:44;14.90;43.10
10300;DHT22;5195;48.562;9.192;2023-05-25T06:00:19;15.30;42.40
10300;DHT22;5195;48.562;9.192;2023-05-25T06:02:57;15.30;42.50
10300;DHT22;5195;48.562;9.192;2023-05-25T06:05:32;15.30;42.50
10300;DHT22;5195;48.562;9.192;2023-05-25T06:08:08;15.30;42.80
10300;DHT22;5195;48.562;9.192;2023-05-25T06:10:44;15.90;41.90
10300;DHT22;5195;48.562;9.192;2023-05-25T06:13:20;15.90;41.80
10300;DHT22;5195;48.562;9.192;2023-05-25T06:15:57;16.30;41.10
10300;DHT22;5195;48.562;9.192;2023-05-25T06:18:32;16.40;41.30
10300;DHT22;5195;48.562;9.192;2023-05-25T06:21:08;16.80;40.80
10300;DHT22;5195;48.562;9.192;2023-05-25T06:23:44;17.10;41.30
10300;DHT22;5195;48.562;9.192;2023-05-25T06:26:20;17.80;40.20
10300;DHT22;5195;48.562;9.192;2023-05-25T06:28:55;18.80;39.20
10300;DHT22;5195;48.562;9.192;2023-05-25T06:31:31;19.80;37.80
10300;DHT22;5195;48.562;9.192;2023-05-25T06:34:07;21.30;35.40
10300;DHT22;5195;48.562;9.192;2023-05-25T06:36:43;21.20;35.20
10300;DHT22;5195;48.562;9.192;2023-05-25T06:39:18;21.20;35.40
10300;DHT22;5195;48.562;9.192;2023-05-25T06:41:54;21.20;34.80
10300;DHT22;5195;48.562;9.192;2023-05-25T06:44:30;21.20;34.70
10300;DHT22;5195;48.562;9.192;2023-05-25T06:47:05;20.80;35.10
10300;DHT22;5195;48.562;9.192;2023-05-25T06:49:41;20.30;35.70
10300;DHT22;5195;48.562;9.192;2023-05-25T06:52:17;19.90;36.30
10300;DHT22;5195;48.562;9.192;2023-05-25T06:54:52;19.40;36.60
10300;DHT22;5195;48.562;9.192;2023-05-25T06:57:28;18.90;37.00
10300;DHT22;5195;48.562;9.192;2023-05-25T07:00:04;18.50;37.40
10300;DHT22;5195;48.562;9.192;2023-05-25T07:02:39;18.30;37.90
10300;DHT22;5195;48.562;9.192;2023-05-25T07:05:15;18.40;38.90
10300;DHT22;5195;48.562;9.192;2023-05-25T07:07:50;18.70;38.70
10300;DHT22;5195;48.562;9.192;2023-05-25T07:10:26;18.90;38.30
10300;DHT22;5195;48.562;9.192;2023-05-25T07:13:02;18.70;38.00
10300;DHT22;5195;48.562;9.192;2023-05-25T07:15:38;18.40;38.90
10300;DHT22;5195;48.562;9.192;2023-05-25T07:18:13;18.40;38.90
10300;DHT22;5195;48.562;9.192;2023-05-25T07:20:49;18.20;38.80
10300;DHT22;5195;48.562;9.192;2023-05-25T07:23:25;18.00;39.20
10300;DHT22;5195;48.562;9.192;2023-05-25T07:26:01;17.70;39.60
10300;DHT22;5195;48.562;9.192;2023-05-25T07:28:36;17.70;39.90
10300;DHT22;5195;48.562;9.192;2023-05-25T07:31:12;17.70;40.10
10300;DHT22;5195;48.562;9.192;2023-05-25T07:33:49;17.80;40.40
10300;DHT22;5195;48.562;9.192;2023-05-25T07:36:25;17.90;40.40
10300;DHT22;5195;48.562;9.192;2023-05-25T07:39:00;18.40;40.30
10300;DHT22;5195;48.562;9.192;2023-05-25T07:41:36;18.70;40.00
10300;DHT22;5195;48.562;9.192;2023-05-25T07:44:12;18.90;39.60
10300;DHT22;5195;48.562;9.192;2023-05-25T07:46:47;19.20;38.80
10300;DHT22;5195;48.562;9.192;2023-05-25T07:49:23;19.70;38.50
10300;DHT22;5195;48.562;9.192;2023-05-25T07:51:58;20.20;38.10
10300;DHT22;5195;48.562;9.192;2023-05-25T07:54:34;20.40;37.30
10300;DHT22;5195;48.562;9.192;2023-05-25T07:57:09;20.50;37.20
10300;DHT22;5195;48.562;9.192;2023-05-25T07:59:45;20.60;37.20
10300;DHT22;5195;48.562;9.192;2023-05-25T08:02:21;20.40;37.60
10300;DHT22;5195;48.562;9.192;2023-05-25T08:04:56;20.30;38.20
10300;DHT22;5195;48.562;9.192;2023-05-25T08:07:32;20.30;38.40
10300;DHT22;5195;48.562;9.192;2023-05-25T08:10:07;20.50;38.60
10300;DHT22;5195;48.562;9.192;2023-05-25T08:12:43;20.90;38.70
10300;DHT22;5195;48.562;9.192;2023-05-25T08:15:19;21.10;38.00
10300;DHT22;5195;48.562;9.192;2023-05-25T08:17:54;20.80;38.00
10300;DHT22;5195;48.562;9.192;2023-05-25T08:20:30;20.60;38.30
10300;DHT22;5195;48.562;9.192;2023-05-25T08:23:05;20.70;37.90
10300;DHT22;5195;48.562;9.192;2023-05-25T08:25:41;20.70;38.10
10300;DHT22;5195;48.562;9.192;2023-05-25T08:28:21;20.70;38.20
10300;DHT22;5195;48.562;9.192;2023-05-25T08:30:55;20.90;37.90
10300;DHT22;5195;48.562;9.192;2023-05-25T08:33:30;20.80;37.80
10300;DHT22;5195;48.562;9.192;2023-05-25T08:36:07;20.80;38.50
10300;DHT22;5195;48.562;9.192;2023-05-25T08:38:43;20.60;38.30
10300;DHT22;5195;48.562;9.192;2023-05-25T08:41:19;20.20;39.30
10300;DHT22;5195;48.562;9.192;2023-05-25T08:43:58;20.20;39.30
10300;DHT22;5195;48.562;9.192;2023-05-25T08:46:34;20.50;38.70
10300;DHT22;5195;48.562;9.192;2023-05-25T08:49:10;20.50;38.70
10300;DHT22;5195;48.562;9.192;2023-05-25T08:51:47;20.40;39.20
10300;DHT22;5195;48.562;9.192;2023-05-25T08:54:24;20.70;38.80
10300;DHT22;5195;48.562;9.192;2023-05-25T08:57:12;20.80;38.70
10300;DHT22;5195;48.562;9.192;2023-05-25T08:59:56;21.00;38.80
10300;DHT22;5195;48.562;9.192;2023-05-25T09:02:38;20.90;38.70
10300;DHT22;5195;48.562;9.192;2023-05-25T09:05:13;20.70;39.10
10300;DHT22;5195;48.562;9.192;2023-05-25T09:07:49;20.60;39.20
10300;DHT22;5195;48.562;9.192;2023-05-25T09:10:24;20.70;39.00
10300;DHT22;5195;48.562;9.192;2023-05-25T09:13:00;21.00;39.10
10300;DHT22;5195;48.562;9.192;2023-05-25T09:15:35;21.40;38.90
10300;DHT22;5195;48.562;9.192;2023-05-25T09:18:11;21.70;38.60
10300;DHT22;5195;48.562;9.192;2023-05-25T09:20:47;21.80;38.60
10300;DHT22;5195;48.562;9.192;2023-05-25T09:23:23;21.70;39.00
10300;DHT22;5195;48.562;9.192;2023-05-25T09:25:58;21.80;39.00
10300;DHT22;5195;48.562;9.192;2023-05-25T09:28:34;21.90;39.40
10300;DHT22;5195;48.562;9.192;2023-05-25T09:31:10;22.40;38.80
10300;DHT22;5195;48.562;9.192;2023-05-25T09:33:45;22.90;36.90
10300;DHT22;5195;48.562;9.192;2023-05-25T09:36:21;22.90;37.10
10300;DHT22;5195;48.562;9.192;2023-05-25T09:38:56;22.90;37.30
10300;DHT22;5195;48.562;9.192;2023-05-25T09:41:32;22.60;37.20
10300;DHT22;5195;48.562;9.192;2023-05-25T09:44:08;22.70;37.70
10300;DHT22;5195;48.562;9.192;2023-05-25T09:46:43;23.10;37.40
10300;DHT22;5195;48.562;9.192;2023-05-25T09:49:19;23.70;37.10
10300;DHT22;5195;48.562;9.192;2023-05-25T09:51:55;23.70;36.40
10300;DHT22;5195;48.562;9.192;2023-05-25T09:54:30;23.60;36.40
10300;DHT22;5195;48.562;9.192;2023-05-25T09:57:06;23.40;36.90
10300;DHT22;5195;48.562;9.192;2023-05-25T09:59:42;23.50;36.70
10300;DHT22;5195;48.562;9.192;2023-05-25T10:02:17;23.70;36.50
10300;DHT22;5195;48.562;9.192;2023-05-25T10:04:53;23.90;36.20
10300;DHT22;5195;48.562;9.192;2023-05-25T10:07:28;24.20;36.10
10300;DHT22;5195;48.562;9.192;2023-05-25T10:10:05;24.30;35.60
10300;DHT22;5195;48.562;9.192;2023-05-25T10:12:40;24.40;35.00
10300;DHT22;5195;48.562;9.192;2023-05-25T10:15:15;24.20;35.30
10300;DHT22;5195;48.562;9.192;2023-05-25T10:17:52;24.10;35.20
10300;DHT22;5195;48.562;9.192;2023-05-25T10:20:26;23.80;35.90
10300;DHT22;5195;48.562;9.192;2023-05-25T10:23:09;23.80;36.70
10300;DHT22;5195;48.562;9.192;2023-05-25T10:25:49;23.80;36.40
10300;DHT22;5195;48.562;9.192;2023-05-25T10:28:27;23.80;36.40
10300;DHT22;5195;48.562;9.192;2023-05-25T10:31:03;24.00;36.30
10300;DHT22;5195;48.562;9.192;2023-05-25T10:33:39;24.00;36.30
10300;DHT22;5195;48.562;9.192;2023-05-25T10:36:14;24.20;35.70
10300;DHT22;5195;48.562;9.192;2023-05-25T10:38:50;24.20;36.00
10300;DHT22;5195;48.562;9.192;2023-05-25T10:41:25;24.10;36.50
10300;DHT22;5195;48.562;9.192;2023-05-25T10:44:01;24.40;36.30
10300;DHT22;5195;48.562;9.192;2023-05-25T10:46:37;24.70;35.60
10300;DHT22;5195;48.562;9.192;2023-05-25T10:49:24;24.70;35.60
10300;DHT22;5195;48.562;9.192;2023-05-25T10:51:56;25.10;35.60
10300;DHT22;5195;48.562;9.192;2023-05-25T10:54:32;25.30;35.10
10300;DHT22;5195;48.562;9.192;2023-05-25T10:57:10;25.30;35.20
10300;DHT22;5195;48.562;9.192;2023-05-25T10:59:51;25.30;34.70
10300;DHT22;5195;48.562;9.192;2023-05-25T11:02:27;24.80;35.60
10300;DHT22;5195;48.562;9.192;2023-05-25T11:05:30;24.70;35.30
10300;DHT22;5195;48.562;9.192;2023-05-25T11:08:08;24.70;36.30
10300;DHT22;5195;48.562;9.192;2023-05-25T11:13:36;24.90;35.90
10300;DHT22;5195;48.562;9.192;2023-05-25T11:16:22;24.60;36.00
10300;DHT22;5195;48.562;9.192;2023-05-25T11:18:58;24.50;35.80
10300;DHT22;5195;48.562;9.192;2023-05-25T11:21:41;24.50;35.80
10300;DHT22;5195;48.562;9.192;2023-05-25T11:24:19;24.50;36.00
10300;DHT22;5195;48.562;9.192;2023-05-25T11:26:56;24.80;36.00
10300;DHT22;5195;48.562;9.192;2023-05-25T11:29:30;24.70;36.10
10300;DHT22;5195;48.562;9.192;2023-05-25T11:32:12;24.50;36.40
10300;DHT22;5195;48.562;9.192;2023-05-25T11:34:52;24.30;36.60
10300;DHT22;5195;48.562;9.192;2023-05-25T11:37:27;24.10;36.80
10300;DHT22;5195;48.562;9.192;2023-05-25T11:40:05;24.30;36.90
10300;DHT22;5195;48.562;9.192;2023-05-25T11:42:39;24.70;36.50
10300;DHT22;5195;48.562;9.192;2023-05-25T11:45:14;25.00;35.60
10300;DHT22;5195;48.562;9.192;2023-05-25T11:47:51;25.00;36.40
10300;DHT22;5195;48.562;9.192;2023-05-25T11:50:26;25.00;35.70
10300;DHT22;5195;48.562;9.192;2023-05-25T11:53:03;25.10;35.90
10300;DHT22;5195;48.562;9.192;2023-05-25T11:55:37;25.00;35.70
10300;DHT22;5195;48.562;9.192;2023-05-25T11:58:13;24.80;36.10
10300;DHT22;5195;48.562;9.192;2023-05-25T12:00:48;25.00;36.40
10300;DHT22;5195;48.562;9.192;2023-05-25T12:03:28;25.30;36.00
10300;DHT22;5195;48.562;9.192;2023-05-25T12:06:04;25.50;35.50
10300;DHT22;5195;48.562;9.192;2023-05-25T12:08:39;25.40;35.40
10300;DHT22;5195;48.562;9.192;2023-05-25T12:11:16;25.20;35.70
10300;DHT22;5195;48.562;9.192;2023-05-25T12:13:52;25.20;35.60
10300;DHT22;5195;48.562;9.192;2023-05-25T12:16:27;25.40;35.40
10300;DHT22;5195;48.562;9.192;2023-05-25T12:19:03;25.30;35.50
10300;DHT22;5195;48.562;9.192;2023-05-25T12:21:39;25.30;35.00
10300;DHT22;5195;48.562;9.192;2023-05-25T12:24:14;25.60;35.10
10300;DHT22;5195;48.562;9.192;2023-05-25T12:26:51;25.60;35.10
10300;DHT22;5195;48.562;9.192;2023-05-25T12:29:28;25.40;35.30
10300;DHT22;5195;48.562;9.192;2023-05-25T12:32:03;25.30;35.80
10300;DHT22;5195;48.562;9.192;2023-05-25T12:34:42;25.10;35.80
10300;DHT22;5195;48.562;9.192;2023-05-25T12:37:21;25.20;36.10
10300;DHT22;5195;48.562;9.192;2023-05-25T12:39:58;25.40;36.00
10300;DHT22;5195;48.562;9.192;2023-05-25T12:42:33;25.40;36.10
10300;DHT22;5195;48.562;9.192;2023-05-25T12:45:09;25.10;35.90
10300;DHT22;5195;48.562;9.192;2023-05-25T12:47:45;24.90;36.20
10300;DHT22;5195;48.562;9.192;2023-05-25T12:50:20;24.80;36.40
10300;DHT22;5195;48.562;9.192;2023-05-25T12:52:59;24.70;36.70
10300;DHT22;5195;48.562;9.192;2023-05-25T12:55:35;25.30;35.70
10300;DHT22;5195;48.562;9.192;2023-05-25T12:58:25;25.30;35.70
10300;DHT22;5195;48.562;9.192;2023-05-25T13:00:46;25.30;35.70
10300;DHT22;5195;48.562;9.192;2023-05-25T13:03:22;25.40;35.40
10300;DHT22;5195;48.562;9.192;2023-05-25T13:05:58;25.60;35.80
10300;DHT22;5195;48.562;9.192;2023-05-25T13:08:34;25.50;35.30
10300;DHT22;5195;48.562;9.192;2023-05-25T13:11:11;25.60;35.20
10300;DHT22;5195;48.562;9.192;2023-05-25T13:13:46;25.50;35.10
10300;DHT22;5195;48.562;9.192;2023-05-25T13:16:23;25.50;35.40
10300;DHT22;5195;48.562;9.192;2023-05-25T13:19:02;25.10;36.30
10300;DHT22;5195;48.562;9.192;2023-05-25T13:21:38;25.00;36.20
10300;DHT22;5195;48.562;9.192;2023-05-25T13:24:14;25.30;36.40
10300;DHT22;5195;48.562;9.192;2023-05-25T13:26:49;25.70;36.30
10300;DHT22;5195;48.562;9.192;2023-05-25T13:29:24;25.70;35.60
10300;DHT22;5195;48.562;9.192;2023-05-25T13:32:01;25.90;35.30
10300;DHT22;5195;48.562;9.192;2023-05-25T13:34:36;25.90;35.30
10300;DHT22;5195;48.562;9.192;2023-05-25T13:37:12;25.70;35.00
10300;DHT22;5195;48.562;9.192;2023-05-25T13:39:47;25.40;35.10
10300;DHT22;5195;48.562;9.192;2023-05-25T13:42:25;25.10;35.90
10300;DHT22;5195;48.562;9.192;2023-05-25T13:45:02;25.10;36.00
10300;DHT22;5195;48.562;9.192;2023-05-25T13:47:38;25.50;34.60
10300;DHT22;5195;48.562;9.192;2023-05-25T13:50:14;25.50;34.60
10300;DHT22;5195;48.562;9.192;2023-05-25T13:52:49;25.60;34.40
10300;DHT22;5195;48.562;9.192;2023-05-25T13:55:25;25.40;34.70
10300;DHT22;5195;48.562;9.192;2023-05-25T13:58:02;25.00;35.40
10300;DHT22;5195;48.562;9.192;2023-05-25T14:00:37;25.10;35.90
10300;DHT22;5195;48.562;9.192;2023-05-25T14:03:13;25.40;35.70
10300;DHT22;5195;48.562;9.192;2023-05-25T14:05:48;25.50;34.40
10300;DHT22;5195;48.562;9.192;2023-05-25T14:08:24;25.60;34.80
10300;DHT22;5195;48.562;9.192;2023-05-25T14:11:00;25.40;34.80
10300;DHT22;5195;48.562;9.192;2023-05-25T14:13:36;25.00;36.20
10300;DHT22;5195;48.562;9.192;2023-05-25T14:16:12;25.10;36.00
10300;DHT22;5195;48.562;9.192;2023-05-25T14:18:48;25.00;35.80
10300;DHT22;5195;48.562;9.192;2023-05-25T14:21:24;25.00;36.40
10300;DHT22;5195;48.562;9.192;2023-05-25T14:24:01;24.90;35.60
10300;DHT22;5195;48.562;9.192;2023-05-25T14:26:36;25.20;34.70
10300;DHT22;5195;48.562;9.192;2023-05-25T14:29:12;25.40;34.40
10300;DHT22;5195;48.562;9.192;2023-05-25T14:31:48;25.40;35.10
10300;DHT22;5195;48.562;9.192;2023-05-25T14:34:24;25.40;35.10
10300;DHT22;5195;48.562;9.192;2023-05-25T14:36:59;25.10;35.30
10300;DHT22;5195;48.562;9.192;2023-05-25T14:39:35;24.80;35.60
10300;DHT22;5195;48.562;9.192;2023-05-25T14:42:10;24.50;35.70
10300;DHT22;5195;48.562;9.192;2023-05-25T14:44:46;24.40;36.00
10300;DHT22;5195;48.562;9.192;2023-05-25T14:47:21;24.60;36.10
10300;DHT22;5195;48.562;9.192;2023-05-25T14:49:57;25.00;36.60
10300;DHT22;5195;48.562;9.192;2023-05-25T14:52:33;25.00;36.20
10300;DHT22;5195;48.562;9.192;2023-05-25T14:55:08;24.70;36.20
10300;DHT22;5195;48.562;9.192;2023-05-25T14:57:44;24.80;36.70
10300;DHT22;5195;48.562;9.192;2023-05-25T15:00:19;25.10;36.40
10300;DHT22;5195;48.562;9.192;2023-05-25T15:02:55;25.00;36.60
10300;DHT22;5195;48.562;9.192;2023-05-25T15:05:31;24.80;37.10
10300;DHT22;5195;48.562;9.192;2023-05-25T15:08:07;25.00;36.90
10300;DHT22;5195;48.562;9.192;2023-05-25T15:10:43;25.40;36.90
10300;DHT22;5195;48.562;9.192;2023-05-25T15:13:18;25.60;35.90
10300;DHT22;5195;48.562;9.192;2023-05-25T15:15:54;25.50;36.10
10300;DHT22;5195;48.562;9.192;2023-05-25T15:18:31;25.50;36.60
10300;DHT22;5195;48.562;9.192;2023-05-25T15:21:06;25.40;36.50
10300;DHT22;5195;48.562;9.192;2023-05-25T15:23:42;25.00;36.60
10300;DHT22;5195;48.562;9.192;2023-05-25T15:26:17;24.70;36.70
10300;DHT22;5195;48.562;9.192;2023-05-25T15:28:54;25.20;37.40
10300;DHT22;5195;48.562;9.192;2023-05-25T15:31:29;25.10;37.30
10300;DHT22;5195;48.562;9.192;2023-05-25T15:34:05;25.50;35.70
10300;DHT22;5195;48.562;9.192;2023-05-25T15:36:42;25.80;35.90
10300;DHT22;5195;48.562;9.192;2023-05-25T15:39:17;26.00;35.10
10300;DHT22;5195;48.562;9.192;2023-05-25T15:41:53;25.80;35.50
10300;DHT22;5195;48.562;9.192;2023-05-25T15:44:29;25.40;36.30
10300;DHT22;5195;48.562;9.192;2023-05-25T15:47:05;25.40;35.70
10300;DHT22;5195;48.562;9.192;2023-05-25T15:49:40;25.40;35.50
10300;DHT22;5195;48.562;9.192;2023-05-25T15:52:16;25.50;35.20
10300;DHT22;5195;48.562;9.192;2023-05-25T15:54:52;25.50;35.20
10300;DHT22;5195;48.562;9.192;2023-05-25T15:57:27;25.50;35.60
10300;DHT22;5195;48.562;9.192;2023-05-25T16:00:03;25.20;35.70
10300;DHT22;5195;48.562;9.192;2023-05-25T16:02:38;24.80;36.70
10300;DHT22;5195;48.562;9.192;2023-05-25T16:05:14;24.70;35.80
10300;DHT22;5195;48.562;9.192;2023-05-25T16:07:50;24.90;36.00
10300;DHT22;5195;48.562;9.192;2023-05-25T16:10:25;24.70;36.00
10300;DHT22;5195;48.562;9.192;2023-05-25T16:13:01;24.40;36.50
10300;DHT22;5195;48.562;9.192;2023-05-25T16:15:36;24.20;36.70
10300;DHT22;5195;48.562;9.192;2023-05-25T16:18:12;24.30;36.60
10300;DHT22;5195;48.562;9.192;2023-05-25T16:20:47;24.20;36.50
10300;DHT22;5195;48.562;9.192;2023-05-25T16:23:23;23.90;36.70
10300;DHT22;5195;48.562;9.192;2023-05-25T16:25:59;23.80;37.30
10300;DHT22;5195;48.562;9.192;2023-05-25T16:28:38;23.60;38.30
10300;DHT22;5195;48.562;9.192;2023-05-25T16:31:14;23.90;37.80
10300;DHT22;5195;48.562;9.192;2023-05-25T16:33:50;24.50;36.30
10300;DHT22;5195;48.562;9.192;2023-05-25T16:36:26;24.50;36.30
10300;DHT22;5195;48.562;9.192;2023-05-25T16:39:01;24.70;35.80
10300;DHT22;5195;48.562;9.192;2023-05-25T16:41:39;24.20;36.20
10300;DHT22;5195;48.562;9.192;2023-05-25T16:44:18;24.10;36.10
10300;DHT22;5195;48.562;9.192;2023-05-25T16:46:54;23.90;36.60
10300;DHT22;5195;48.562;9.192;2023-05-25T16:49:29;23.90;36.50
10300;DHT22;5195;48.562;9.192;2023-05-25T16:52:05;24.20;36.20
10300;DHT22;5195;48.562;9.192;2023-05-25T16:54:41;24.40;35.90